createdAt,value
2023-05-05T00:00:13.758Z,15.5210
2023-05-05T00:01:14.809Z,15.4770
2023-05-05T00:02:15.424Z,15.5104
2023-05-05T00:03:16.730Z,15.4864
2023-05-05T00:04:18.039Z,15.5161
2023-05-05T00:05:18.293Z,15.4992
2023-05-05T00:06:18.840Z,15.4742
2023-05-05T00:07:19.366Z,15.4826
2023-05-05T00:08:19.678Z,15.4601
2023-05-05T00:09:20.233Z,15.4363
2023-05-05T00:10:21.108Z,15.4209
2023-05-05T00:11:22.177Z,15.4076
2023-05-05T00:12:22.752Z,15.3904
2023-05-05T00:13:23.906Z,15.3182
2023-05-05T00:14:24.702Z,15.2871
2023-05-05T00:15:25.265Z,15.2494
2023-05-05T00:16:26.065Z,15.1943
2023-05-05T00:17:26.985Z,15.1484
2023-05-05T00:18:28.135Z,15.1208
2023-05-05T00:19:28.868Z,15.0222
2023-05-05T00:20:30.070Z,14.9854
2023-05-05T00:21:30.842Z,14.9676
2023-05-05T00:22:31.664Z,14.9247
2023-05-05T00:23:32.228Z,14.8908
2023-05-05T00:24:32.881Z,14.8468
2023-05-05T00:25:33.534Z,14.7738
2023-05-05T00:26:34.265Z,14.7630
2023-05-05T00:27:35.079Z,14.7199
2023-05-05T00:28:35.635Z,14.6670
2023-05-05T00:29:36.427Z,14.6132
2023-05-05T00:30:37.330Z,14.5915
2023-05-05T00:31:38.190Z,14.6178
2023-05-05T00:32:39.155Z,14.6919
2023-05-05T00:33:39.786Z,14.6363
2023-05-05T00:34:40.648Z,14.6404
2023-05-05T00:35:41.558Z,14.6449
2023-05-05T00:36:43.289Z,14.6302
2023-05-05T00:37:43.320Z,14.6150
2023-05-05T00:38:44.078Z,14.6485
2023-05-05T00:39:45.009Z,14.6915
2023-05-05T00:40:45.929Z,14.7592
2023-05-05T00:41:46.637Z,14.7728
2023-05-05T00:42:47.538Z,14.7430
2023-05-05T00:43:48.382Z,14.8113
2023-05-05T00:44:48.970Z,14.7606
2023-05-05T00:45:49.610Z,14.8336
2023-05-05T00:46:50.643Z,14.8172
2023-05-05T00:47:51.825Z,14.8114
2023-05-05T00:48:53.918Z,14.7898
2023-05-05T00:49:53.577Z,14.7604
2023-05-05T00:50:54.483Z,14.7300
2023-05-05T00:51:55.331Z,14.6781
2023-05-05T00:52:56.016Z,14.6351
2023-05-05T00:53:56.963Z,14.5957
2023-05-05T00:54:57.617Z,14.5651
2023-05-05T00:55:58.344Z,14.5381
2023-05-05T00:56:59.269Z,14.5727
2023-05-05T00:57:59.882Z,14.5911
2023-05-05T00:59:01.470Z,14.6142
2023-05-05T01:00:01.207Z,14.6710
2023-05-05T01:01:01.929Z,14.6550
2023-05-05T01:02:02.796Z,14.6214
2023-05-05T01:04:22.425Z,14.5931
2023-05-05T01:05:23.413Z,14.5795
2023-05-05T01:11:30.482Z,14.7480
2023-05-05T01:12:31.813Z,14.9120
2023-05-05T01:18:37.687Z,15.1579
2023-05-05T01:19:38.273Z,15.1540
2023-05-05T01:20:39.394Z,15.1496
2023-05-05T01:21:39.720Z,15.1468
2023-05-05T01:22:40.871Z,15.1231
2023-05-05T01:23:41.694Z,15.1152
2023-05-05T01:24:43.325Z,15.0725
2023-05-05T01:25:43.449Z,15.0526
2023-05-05T01:26:44.260Z,15.0110
2023-05-05T01:27:45.045Z,14.9732
2023-05-05T01:30:47.184Z,14.8051
2023-05-05T01:31:48.303Z,14.7004
2023-05-05T01:36:51.868Z,14.4624
2023-05-05T01:37:51.911Z,14.4319
2023-05-05T01:38:51.981Z,14.4194
2023-05-05T01:39:52.430Z,14.3767
2023-05-05T01:40:53.636Z,14.3529
2023-05-05T01:41:55.793Z,14.3202
2023-05-05T01:42:58.013Z,14.2894
2023-05-05T01:44:00.275Z,14.2366
2023-05-05T01:45:02.319Z,14.1307
2023-05-05T01:46:03.449Z,14.1038
2023-05-05T01:47:04.491Z,14.0319
2023-05-05T01:54:15.317Z,14.0360
2023-05-05T02:00:19.223Z,13.9811
2023-05-05T02:01:19.766Z,13.9705
2023-05-05T02:03:20.976Z,13.8838
2023-05-05T02:04:22.030Z,13.8450
2023-05-05T02:05:22.887Z,13.8394
2023-05-05T02:06:22.973Z,13.8360
2023-05-05T02:07:24.647Z,13.8350
2023-05-05T02:08:24.344Z,13.8402
2023-05-05T02:09:25.332Z,13.8719
2023-05-05T02:10:26.071Z,13.9382
2023-05-05T02:11:26.115Z,14.0924
2023-05-05T02:12:29.661Z,14.3636
2023-05-05T02:13:26.841Z,14.5288
2023-05-05T02:14:27.137Z,14.4714
2023-05-05T02:15:27.952Z,14.6388
2023-05-05T02:16:29.119Z,14.6290
2023-05-05T02:17:30.086Z,14.6511
2023-05-05T02:18:30.849Z,14.7178
2023-05-05T02:19:31.681Z,14.7017
2023-05-05T02:20:31.770Z,14.6291
2023-05-05T02:21:32.693Z,14.7300
2023-05-05T02:22:33.552Z,14.7894
2023-05-05T02:23:34.311Z,14.8155
2023-05-05T02:24:35.104Z,14.8816
2023-05-05T02:25:36.399Z,14.9458
2023-05-05T02:26:37.280Z,14.9414
2023-05-05T02:27:38.256Z,14.9704
2023-05-05T02:28:38.938Z,14.9600
2023-05-05T02:29:40.241Z,14.9195
2023-05-05T02:30:40.637Z,14.9008
2023-05-05T02:31:41.670Z,14.8796
2023-05-05T02:32:42.927Z,14.8682
2023-05-05T02:33:43.828Z,14.8298
2023-05-05T02:34:44.540Z,14.8065
2023-05-05T02:35:45.493Z,14.7845
2023-05-05T02:36:46.260Z,14.7522
2023-05-05T02:37:47.122Z,14.7212
2023-05-05T02:38:48.120Z,14.6576
2023-05-05T02:39:48.751Z,14.6256
2023-05-05T02:42:50.067Z,14.4530
2023-05-05T02:44:50.394Z,14.3830
2023-05-05T02:45:51.380Z,14.2927
2023-05-05T02:46:52.534Z,14.2427
2023-05-05T02:47:53.717Z,14.2239
2023-05-05T02:48:54.204Z,14.1554
2023-05-05T02:49:55.409Z,14.0289
2023-05-05T02:50:55.371Z,14.0501
2023-05-05T02:51:56.000Z,14.0224
2023-05-05T02:52:56.690Z,14.0092
2023-05-05T02:53:57.554Z,13.9594
2023-05-05T02:54:57.921Z,13.9315
2023-05-05T02:55:58.365Z,13.9254
2023-05-05T02:56:59.541Z,13.9577
2023-05-05T02:58:00.426Z,13.9968
2023-05-05T02:59:01.268Z,14.0057
2023-05-05T03:00:01.321Z,14.0271
2023-05-05T03:01:01.985Z,14.0295
2023-05-05T03:02:02.217Z,14.0183
2023-05-05T03:03:03.594Z,14.0123
2023-05-05T03:04:03.775Z,14.0060
2023-05-05T03:05:04.643Z,13.9928
2023-05-05T03:06:05.548Z,13.9715
2023-05-05T03:07:06.455Z,13.9510
2023-05-05T03:08:07.354Z,13.9160
2023-05-05T03:09:08.227Z,13.8953
2023-05-05T03:10:09.444Z,13.8703
2023-05-05T03:11:09.268Z,13.8801
2023-05-05T03:12:10.065Z,13.8626
2023-05-05T03:13:11.368Z,13.8519
2023-05-05T03:14:12.154Z,13.8513
2023-05-05T03:15:13.087Z,13.8066
2023-05-05T03:16:14.132Z,13.7631
2023-05-05T03:17:15.057Z,13.7871
2023-05-05T03:18:16.398Z,13.7841
2023-05-05T03:19:17.092Z,13.7705
2023-05-05T03:20:17.404Z,13.7547
2023-05-05T03:21:18.445Z,13.7440
2023-05-05T03:22:19.158Z,13.7361
2023-05-05T03:23:20.355Z,13.7608
2023-05-05T03:24:20.224Z,13.7627
2023-05-05T03:25:20.991Z,13.7763
2023-05-05T03:26:21.659Z,13.8012
2023-05-05T03:27:22.544Z,13.8383
2023-05-05T03:28:23.732Z,13.8535
2023-05-05T03:29:23.950Z,13.8639
2023-05-05T03:30:24.001Z,13.8676
2023-05-05T03:31:24.489Z,13.8633
2023-05-05T03:34:17.766Z,13.8526
2023-05-05T03:35:18.643Z,13.8502
2023-05-05T03:36:19.471Z,13.8511
2023-05-05T03:37:20.350Z,13.8615
2023-05-05T03:38:21.217Z,13.9104
2023-05-05T03:39:21.904Z,13.9375
2023-05-05T03:40:29.618Z,13.9195
2023-05-05T03:41:23.516Z,13.9640
2023-05-05T03:42:24.155Z,13.9524
2023-05-05T03:43:24.974Z,13.9361
2023-05-05T03:44:25.709Z,13.9266
2023-05-05T03:45:26.659Z,13.9182
2023-05-05T03:46:27.674Z,13.9257
2023-05-05T03:47:29.623Z,13.9279
2023-05-05T03:49:30.320Z,13.9293
2023-05-05T03:50:30.466Z,13.9270
2023-05-05T03:51:31.023Z,13.9195
2023-05-05T03:52:31.553Z,13.9078
2023-05-05T03:53:32.377Z,13.9046
2023-05-05T03:54:33.671Z,13.9038
2023-05-05T03:55:34.699Z,13.8962
2023-05-05T03:56:35.978Z,13.8827
2023-05-05T03:57:36.757Z,13.8714
2023-05-05T03:58:37.256Z,13.8568
2023-05-05T03:59:38.267Z,13.8300
2023-05-05T04:00:39.603Z,13.8203
2023-05-05T04:01:40.527Z,13.8031
2023-05-05T04:02:41.346Z,13.7736
2023-05-05T04:03:43.329Z,13.7434
2023-05-05T04:04:44.702Z,13.7263
2023-05-05T04:05:44.846Z,13.7022
2023-05-05T04:06:46.813Z,13.6757
2023-05-05T04:07:47.890Z,13.6591
2023-05-05T04:08:48.718Z,13.6459
2023-05-05T04:09:49.600Z,13.6209
2023-05-05T04:10:49.645Z,13.5955
2023-05-05T04:11:49.859Z,13.5793
2023-05-05T04:12:51.031Z,13.5709
2023-05-05T04:13:52.053Z,13.5488
2023-05-05T04:14:52.689Z,13.5188
2023-05-05T04:16:53.321Z,13.5258
2023-05-05T04:17:53.565Z,13.5122
2023-05-05T04:18:54.538Z,13.4952
2023-05-05T04:19:55.374Z,13.4542
2023-05-05T04:20:55.408Z,13.4248
2023-05-05T04:21:55.901Z,13.4177
2023-05-05T04:22:58.248Z,13.4044
2023-05-05T04:23:59.144Z,13.3613
2023-05-05T04:25:00.301Z,13.3298
2023-05-05T04:26:01.135Z,13.2964
2023-05-05T04:27:02.055Z,13.2468
2023-05-05T04:29:02.815Z,13.2347
2023-05-05T04:30:03.854Z,13.2356
2023-05-05T04:32:04.459Z,13.1969
2023-05-05T04:33:04.612Z,13.1206
2023-05-05T04:34:05.408Z,13.1539
2023-05-05T04:35:06.431Z,13.1812
2023-05-05T04:36:07.472Z,13.2347
2023-05-05T04:37:08.304Z,13.1777
2023-05-05T04:38:09.365Z,13.2385
2023-05-05T04:39:10.522Z,13.2244
2023-05-05T04:40:11.352Z,13.2343
2023-05-05T04:41:12.338Z,13.2808
2023-05-05T04:42:12.533Z,13.3131
2023-05-05T04:43:13.500Z,13.3422
2023-05-05T04:44:14.533Z,13.3576
2023-05-05T04:45:15.295Z,13.3697
2023-05-05T04:46:16.326Z,13.3978
2023-05-05T04:47:16.302Z,13.4039
2023-05-05T04:48:16.343Z,13.4173
2023-05-05T04:49:17.514Z,13.4273
2023-05-05T04:50:17.501Z,13.4274
2023-05-05T04:51:18.456Z,13.4131
2023-05-05T04:52:19.329Z,13.4040
2023-05-05T04:53:20.187Z,13.3653
2023-05-05T04:54:21.201Z,13.3472
2023-05-05T04:55:22.003Z,13.3275
2023-05-05T04:56:22.979Z,13.3018
2023-05-05T04:57:24.016Z,13.2769
2023-05-05T04:58:24.893Z,13.2865
2023-05-05T04:59:25.887Z,13.2472
2023-05-05T05:00:26.668Z,13.2132
2023-05-05T05:01:27.860Z,13.2297
2023-05-05T05:02:28.286Z,13.2343
2023-05-05T05:03:28.489Z,13.2304
2023-05-05T05:04:28.811Z,13.2204
2023-05-05T05:05:29.789Z,13.2351
2023-05-05T05:06:30.777Z,13.2470
2023-05-05T05:07:30.818Z,13.2521
2023-05-05T05:08:31.680Z,13.2657
2023-05-05T05:09:32.633Z,13.2625
2023-05-05T05:10:33.600Z,13.2878
2023-05-05T05:11:34.967Z,13.2897
2023-05-05T05:12:35.115Z,13.2966
2023-05-05T05:13:35.407Z,13.4100
2023-05-05T05:14:36.423Z,13.4175
2023-05-05T05:15:36.812Z,13.4211
2023-05-05T05:16:37.094Z,13.4472
2023-05-05T05:17:38.197Z,13.4485
2023-05-05T05:18:39.662Z,13.4289
2023-05-05T05:19:40.079Z,13.4079
2023-05-05T05:20:40.756Z,13.3787
2023-05-05T05:21:40.891Z,13.3671
2023-05-05T05:22:41.519Z,13.3843
2023-05-05T05:23:42.080Z,13.3830
2023-05-05T05:24:43.231Z,13.3852
2023-05-05T05:25:43.315Z,13.3971
2023-05-05T05:26:44.607Z,13.4517
2023-05-05T05:27:50.172Z,13.4932
2023-05-05T05:28:45.870Z,13.5066
2023-05-05T05:29:46.748Z,13.5431
2023-05-05T05:30:47.486Z,13.6135
2023-05-05T05:31:47.478Z,13.6236
2023-05-05T05:32:49.102Z,13.6550
2023-05-05T05:33:49.085Z,13.6877
2023-05-05T05:34:49.925Z,13.6874
2023-05-05T05:35:50.065Z,13.7265
2023-05-05T05:36:51.069Z,13.7666
2023-05-05T05:37:51.107Z,13.7866
2023-05-05T05:38:52.396Z,13.7931
2023-05-05T05:39:53.443Z,13.7630
2023-05-05T05:40:53.976Z,13.7566
2023-05-05T05:41:54.886Z,13.7480
2023-05-05T05:42:56.265Z,13.7768
2023-05-05T05:43:57.318Z,13.8056
2023-05-05T05:44:58.147Z,13.8354
2023-05-05T05:45:58.317Z,13.8652
2023-05-05T05:46:58.909Z,13.8879
2023-05-05T05:48:00.045Z,13.9350
2023-05-05T05:49:00.019Z,13.9614
2023-05-05T05:50:01.229Z,13.9970
2023-05-05T05:51:02.448Z,14.0294
2023-05-05T05:52:02.290Z,14.0348
2023-05-05T05:53:02.952Z,14.0292
2023-05-05T05:54:04.159Z,14.1284
2023-05-05T05:55:05.090Z,14.2418
2023-05-05T05:56:06.301Z,14.2685
2023-05-05T05:57:07.597Z,14.3354
2023-05-05T05:58:08.484Z,14.4178
2023-05-05T05:59:09.537Z,14.4657
2023-05-05T06:00:11.662Z,14.4518
2023-05-05T06:01:12.505Z,14.4861
2023-05-05T06:02:13.885Z,14.5423
2023-05-05T06:03:14.876Z,14.5951
2023-05-05T06:04:15.955Z,14.6848
2023-05-05T06:05:15.887Z,14.7002
2023-05-05T06:06:16.762Z,14.7299
2023-05-05T06:07:17.740Z,14.7344
2023-05-05T06:08:19.070Z,14.7421
2023-05-05T06:09:19.936Z,14.7447
2023-05-05T06:10:28.047Z,14.7552
2023-05-05T06:11:24.873Z,14.7532
2023-05-05T06:12:25.703Z,14.7528
2023-05-05T06:13:25.867Z,14.7930
2023-05-05T06:14:26.516Z,14.8183
2023-05-05T06:15:27.650Z,14.8320
2023-05-05T06:16:29.020Z,14.8687
2023-05-05T06:17:30.046Z,14.9517
2023-05-05T06:18:30.854Z,14.9963
2023-05-05T06:19:31.693Z,15.0438
2023-05-05T06:20:32.681Z,15.0698
2023-05-05T06:21:33.701Z,15.0763
2023-05-05T06:22:34.645Z,15.1390
2023-05-05T06:23:35.629Z,15.1943
2023-05-05T06:24:36.636Z,15.1919
2023-05-05T06:25:37.544Z,15.2658
2023-05-05T06:26:38.547Z,15.4041
2023-05-05T06:27:39.493Z,15.4637
2023-05-05T06:28:40.669Z,15.5323
2023-05-05T06:29:41.798Z,15.6314
2023-05-05T06:30:43.049Z,15.6501
2023-05-05T06:31:44.327Z,15.6422
2023-05-05T06:32:45.480Z,15.6765
2023-05-05T06:33:46.525Z,15.7317
2023-05-05T06:34:46.632Z,15.7614
2023-05-05T06:35:47.824Z,15.7761
2023-05-05T06:36:48.214Z,15.7814
2023-05-05T06:37:50.259Z,15.7978
2023-05-05T06:40:50.534Z,15.8588
2023-05-05T06:41:51.882Z,15.8674
2023-05-05T06:42:53.050Z,15.9386
2023-05-05T06:43:54.549Z,16.0150
2023-05-05T06:44:55.003Z,16.0083
2023-05-05T06:45:56.191Z,16.0871
2023-05-05T06:46:56.219Z,16.1159
2023-05-05T06:47:57.643Z,16.1701
2023-05-05T06:48:57.597Z,16.1492
2023-05-05T06:49:58.717Z,16.1718
2023-05-05T06:50:59.417Z,16.2430
2023-05-05T06:52:00.097Z,16.3268
2023-05-05T06:53:01.109Z,16.3332
2023-05-05T06:54:02.331Z,16.3314
2023-05-05T06:55:02.984Z,16.4117
2023-05-05T06:56:04.124Z,16.3713
2023-05-05T06:57:04.269Z,16.4122
2023-05-05T06:58:05.230Z,16.4257
2023-05-05T06:59:06.426Z,16.5550
2023-05-05T07:00:07.832Z,16.4895
2023-05-05T07:01:08.111Z,16.4030
2023-05-05T07:02:08.184Z,16.3379
2023-05-05T07:03:08.302Z,16.4211
2023-05-05T07:04:08.549Z,16.3688
2023-05-05T07:05:09.648Z,16.3330
2023-05-05T07:06:10.747Z,16.3749
2023-05-05T07:07:12.012Z,16.3481
2023-05-05T07:08:13.085Z,16.4074
2023-05-05T07:09:15.755Z,16.4424
2023-05-05T07:10:15.653Z,16.4898
2023-05-05T07:11:16.422Z,16.5230
2023-05-05T07:12:17.622Z,16.5351
2023-05-05T07:13:19.001Z,16.5531
2023-05-05T07:14:19.041Z,16.5655
2023-05-05T07:15:29.096Z,16.5660
2023-05-05T07:16:24.623Z,16.6029
2023-05-05T07:17:25.864Z,16.6834
2023-05-05T07:18:25.872Z,16.7471
2023-05-05T07:19:26.770Z,16.6906
2023-05-05T07:20:27.922Z,16.7913
2023-05-05T07:21:28.928Z,16.7994
2023-05-05T07:22:30.116Z,16.8712
2023-05-05T07:23:31.265Z,16.9194
2023-05-05T07:24:32.261Z,16.8732
2023-05-05T07:25:33.399Z,16.8969
2023-05-05T07:26:34.711Z,16.9803
2023-05-05T07:27:35.811Z,16.9974
2023-05-05T07:28:36.930Z,17.0279
2023-05-05T07:29:37.833Z,17.0003
2023-05-05T07:30:38.260Z,17.0333
2023-05-05T07:31:39.547Z,16.9790
2023-05-05T07:32:39.614Z,17.0058
2023-05-05T07:33:40.761Z,17.0007
2023-05-05T07:34:41.626Z,17.0002
2023-05-05T07:35:42.597Z,16.9573
2023-05-05T07:36:43.756Z,16.9747
2023-05-05T07:37:44.718Z,16.9647
2023-05-05T07:38:44.965Z,16.9852
2023-05-05T07:39:45.939Z,16.9566
2023-05-05T07:40:46.649Z,16.9104
2023-05-05T07:41:47.811Z,17.0041
2023-05-05T07:42:48.826Z,17.0987
2023-05-05T07:43:49.951Z,17.1324
2023-05-05T07:44:50.957Z,17.2082
2023-05-05T07:45:52.133Z,17.2452
2023-05-05T07:46:52.137Z,17.1883
2023-05-05T07:47:53.249Z,17.1848
2023-05-05T07:49:54.211Z,17.1305
2023-05-05T07:50:54.619Z,17.1299
2023-05-05T07:51:55.873Z,17.1556
2023-05-05T07:53:02.525Z,17.1398
2023-05-05T07:53:56.873Z,17.1736
2023-05-05T07:54:57.074Z,17.2732
2023-05-05T07:55:58.079Z,17.3290
2023-05-05T07:56:59.023Z,17.2687
2023-05-05T07:58:00.200Z,17.1719
2023-05-05T07:59:01.299Z,17.1981
2023-05-05T08:00:02.151Z,17.1985
2023-05-05T08:01:02.226Z,17.1621
2023-05-05T08:02:03.138Z,17.1668
2023-05-05T08:03:03.878Z,17.2034
2023-05-05T08:04:04.938Z,17.2752
2023-05-05T08:05:05.060Z,17.2966
2023-05-05T08:06:04.990Z,17.3244
2023-05-05T08:07:06.102Z,17.3910
2023-05-05T08:08:06.706Z,17.4652
2023-05-05T08:09:07.624Z,17.5070
2023-05-05T08:10:08.916Z,17.5298
2023-05-05T08:11:10.037Z,17.5529
2023-05-05T08:12:10.763Z,17.4689
2023-05-05T08:13:11.071Z,17.4137
2023-05-05T08:14:12.289Z,17.4783
2023-05-05T08:15:12.588Z,17.5078
2023-05-05T08:16:12.708Z,17.6434
2023-05-05T08:17:13.845Z,17.5559
2023-05-05T08:18:14.017Z,17.5603
2023-05-05T08:19:27.566Z,17.5569
2023-05-05T08:20:14.638Z,17.5502
2023-05-05T08:21:14.744Z,17.5063
2023-05-05T08:22:15.881Z,17.4686
2023-05-05T08:23:16.010Z,17.4683
2023-05-05T08:24:17.403Z,17.4650
2023-05-05T08:25:18.667Z,17.6083
2023-05-05T08:26:18.845Z,17.6201
2023-05-05T08:27:19.812Z,17.5339
2023-05-05T08:28:19.895Z,17.5720
2023-05-05T08:29:20.913Z,17.6110
2023-05-05T08:30:20.963Z,17.7831
2023-05-05T08:31:22.211Z,17.8382
2023-05-05T08:34:23.877Z,17.7234
2023-05-05T08:35:24.301Z,17.8083
2023-05-05T08:36:25.543Z,18.0093
2023-05-05T08:37:26.558Z,18.1007
2023-05-05T08:38:27.720Z,18.0554
2023-05-05T08:39:27.998Z,17.9650
2023-05-05T08:40:28.584Z,17.9214
2023-05-05T08:41:29.640Z,17.9200
2023-05-05T08:42:36.937Z,18.0295
2023-05-05T08:43:31.931Z,18.1428
2023-05-05T08:44:33.150Z,18.1540
2023-05-05T08:45:34.059Z,18.1680
2023-05-05T08:46:35.265Z,18.2002
2023-05-05T08:47:35.496Z,18.2887
2023-05-05T08:48:35.734Z,18.3754
2023-05-05T08:50:36.732Z,18.3887
2023-05-05T08:51:37.503Z,18.3822
2023-05-05T08:52:39.080Z,18.4128
2023-05-05T08:53:40.164Z,18.4533
2023-05-05T08:54:40.221Z,18.3849
2023-05-05T08:55:40.695Z,18.4407
2023-05-05T08:56:41.984Z,18.5169
2023-05-05T08:57:43.406Z,18.5342
2023-05-05T08:58:44.386Z,18.6218
2023-05-05T08:59:44.453Z,18.4976
2023-05-05T09:00:45.735Z,18.5215
2023-05-05T09:01:45.990Z,18.5441
2023-05-05T09:02:46.242Z,18.5563
2023-05-05T09:03:47.266Z,18.5228
2023-05-05T09:04:48.556Z,18.5367
2023-05-05T09:05:49.049Z,18.5118
2023-05-05T09:06:49.131Z,18.4670
2023-05-05T09:07:50.384Z,18.4417
2023-05-05T09:08:51.676Z,18.4207
2023-05-05T09:09:51.693Z,18.4088
2023-05-05T09:10:51.997Z,18.4147
2023-05-05T09:11:53.162Z,18.4499
2023-05-05T09:12:53.251Z,18.4896
2023-05-05T09:13:53.462Z,18.5445
2023-05-05T09:14:53.402Z,18.5382
2023-05-05T09:15:53.538Z,18.6329
2023-05-05T09:16:53.547Z,18.6378
2023-05-05T09:17:53.767Z,18.5483
2023-05-05T09:18:54.982Z,18.6313
2023-05-05T09:19:55.046Z,18.7500
2023-05-05T09:20:58.143Z,18.5988
2023-05-05T09:21:56.743Z,18.6008
2023-05-05T09:22:57.976Z,18.5751
2023-05-05T09:24:04.897Z,18.6323
2023-05-05T09:24:59.700Z,18.6738
2023-05-05T09:25:59.917Z,18.6963
2023-05-05T09:27:01.356Z,18.8004
2023-05-05T09:28:01.327Z,18.7789
2023-05-05T09:29:01.418Z,18.9464
2023-05-05T09:30:02.653Z,18.8622
2023-05-05T09:31:02.736Z,18.8720
2023-05-05T09:32:02.828Z,18.8720
2023-05-05T09:33:03.559Z,18.9331
2023-05-05T09:34:04.720Z,18.9591
2023-05-05T09:35:04.730Z,18.9701
2023-05-05T09:36:04.877Z,19.0331
2023-05-05T09:37:06.370Z,19.0610
2023-05-05T09:38:07.017Z,19.0012
2023-05-05T09:39:07.280Z,19.0455
2023-05-05T09:40:07.389Z,19.2501
2023-05-05T09:41:08.637Z,19.2370
2023-05-05T09:42:09.910Z,19.1916
2023-05-05T09:43:10.073Z,19.1239
2023-05-05T09:44:10.164Z,19.1292
2023-05-05T09:45:11.342Z,19.2615
2023-05-05T09:46:11.545Z,19.3662
2023-05-05T09:47:28.989Z,19.4113
2023-05-05T09:48:17.325Z,19.3773
2023-05-05T09:49:17.453Z,19.4743
2023-05-05T09:50:17.757Z,19.5727
2023-05-05T09:51:17.843Z,19.5384
2023-05-05T09:52:17.863Z,19.6150
2023-05-05T09:53:18.177Z,19.7022
2023-05-05T09:54:18.278Z,19.6309
2023-05-05T09:55:18.650Z,19.6283
2023-05-05T09:56:19.119Z,19.6333
2023-05-05T09:57:20.404Z,19.7800
2023-05-05T09:58:20.703Z,19.7391
2023-05-05T09:59:20.629Z,19.7269
2023-05-05T10:00:21.293Z,19.8698
2023-05-05T10:01:21.266Z,19.7535
2023-05-05T10:02:21.598Z,19.8288
2023-05-05T10:03:21.722Z,19.9186
2023-05-05T10:04:21.879Z,19.9878
2023-05-05T10:05:22.110Z,20.1458
2023-05-05T10:06:22.396Z,20.1806
2023-05-05T10:07:23.685Z,20.2026
2023-05-05T10:08:23.712Z,20.1234
2023-05-05T10:09:25.323Z,20.1132
2023-05-05T10:10:26.920Z,20.1032
2023-05-05T10:11:25.865Z,20.1574
2023-05-05T10:12:27.021Z,20.2364
2023-05-05T10:13:27.361Z,20.3905
2023-05-05T10:14:28.612Z,20.2870
2023-05-05T10:15:28.899Z,20.1779
2023-05-05T10:16:29.712Z,20.2056
2023-05-05T10:17:30.282Z,20.1873
2023-05-05T10:18:30.947Z,20.1135
2023-05-05T10:19:30.873Z,20.0421
2023-05-05T10:20:31.087Z,20.1396
2023-05-05T10:21:31.140Z,20.0774
2023-05-05T10:22:31.325Z,20.1558
2023-05-05T10:23:31.464Z,20.2786
2023-05-05T10:24:31.746Z,20.2752
2023-05-05T10:27:33.220Z,20.1864
2023-05-05T10:28:33.347Z,20.3883
2023-05-05T10:29:34.827Z,20.4892
2023-05-05T10:30:35.417Z,20.5608
2023-05-05T10:31:35.551Z,20.6982
2023-05-05T10:33:42.679Z,20.6849
2023-05-05T10:34:43.809Z,20.6691
2023-05-05T10:35:45.028Z,20.5649
2023-05-05T10:36:45.333Z,20.4542
2023-05-05T10:37:45.242Z,20.5053
2023-05-05T10:38:45.304Z,20.6220
2023-05-05T10:39:46.760Z,20.6899
2023-05-05T10:40:47.625Z,20.6106
2023-05-05T10:41:48.004Z,20.6411
2023-05-05T10:42:48.004Z,20.6082
2023-05-05T10:43:48.171Z,20.4889
2023-05-05T10:44:48.286Z,20.5339
2023-05-05T10:45:49.115Z,20.5354
2023-05-05T10:46:49.663Z,20.4375
2023-05-05T10:47:50.118Z,20.4314
2023-05-05T10:48:50.744Z,20.3680
2023-05-05T10:49:50.689Z,20.3340
2023-05-05T10:50:50.823Z,20.3063
2023-05-05T10:51:51.407Z,20.3956
2023-05-05T10:52:51.683Z,20.5269
2023-05-05T10:53:52.978Z,20.4403
2023-05-05T10:54:53.418Z,20.4550
2023-05-05T10:55:53.386Z,20.6567
2023-05-05T10:56:53.820Z,20.6162
2023-05-05T10:57:53.831Z,20.5171
2023-05-05T10:59:00.141Z,20.4279
2023-05-05T10:59:55.230Z,20.4080
2023-05-05T11:00:55.503Z,20.4036
2023-05-05T11:01:56.291Z,20.6278
2023-05-05T11:02:57.236Z,20.7198
2023-05-05T11:03:57.949Z,20.6695
2023-05-05T11:04:58.233Z,20.7612
2023-05-05T11:05:58.380Z,20.8500
2023-05-05T11:06:59.649Z,20.8460
2023-05-05T11:08:00.709Z,21.0106
2023-05-05T11:09:00.821Z,21.1284
2023-05-05T11:10:01.002Z,21.1370
2023-05-05T11:11:01.860Z,21.1371
2023-05-05T11:12:02.315Z,21.2836
2023-05-05T11:13:02.750Z,21.3652
2023-05-05T11:14:03.757Z,21.2455
2023-05-05T11:15:03.919Z,21.2529
2023-05-05T11:16:04.097Z,21.2510
2023-05-05T11:17:04.681Z,21.2437
2023-05-05T11:18:07.376Z,21.2219
2023-05-05T11:19:05.063Z,21.0982
2023-05-05T11:20:05.121Z,21.0981
2023-05-05T11:21:05.481Z,21.0795
2023-05-05T11:22:05.689Z,21.0798
2023-05-05T11:23:05.886Z,21.2659
2023-05-05T11:24:06.056Z,21.5402
2023-05-05T11:25:07.249Z,21.3851
2023-05-05T11:26:07.502Z,21.2049
2023-05-05T11:27:08.921Z,21.2808
2023-05-05T11:28:09.107Z,21.4468
2023-05-05T11:29:09.272Z,21.3841
2023-05-05T11:30:10.520Z,21.5556
2023-05-05T11:31:10.709Z,21.6970
2023-05-05T11:32:11.010Z,21.7036
2023-05-05T11:33:11.141Z,21.8121
2023-05-05T11:34:12.378Z,21.8846
2023-05-05T11:35:12.497Z,21.8763
2023-05-05T11:36:13.950Z,22.0682
2023-05-05T11:37:15.285Z,22.2130
2023-05-05T11:38:15.478Z,22.2063
2023-05-05T11:39:16.763Z,22.0288
2023-05-05T11:40:17.019Z,22.0278
2023-05-05T11:41:17.071Z,21.7630
2023-05-05T11:42:18.305Z,21.7826
2023-05-05T11:43:18.530Z,21.7711
2023-05-05T11:44:18.570Z,22.0072
2023-05-05T11:45:18.693Z,22.0849
2023-05-05T11:46:19.104Z,22.0326
2023-05-05T11:47:19.596Z,22.1543
2023-05-05T11:48:20.080Z,22.3777
2023-05-05T11:49:20.637Z,22.4047
2023-05-05T11:50:20.590Z,22.4640
2023-05-05T11:51:20.714Z,22.4393
2023-05-05T11:52:20.765Z,22.3736
2023-05-05T11:53:21.050Z,22.4881
2023-05-05T11:54:21.285Z,22.6036
2023-05-05T11:55:21.369Z,22.6968
2023-05-05T11:56:22.810Z,22.4960
2023-05-05T11:57:22.895Z,22.5174
2023-05-05T11:58:23.136Z,22.5833
2023-05-05T11:59:24.423Z,22.2293
2023-05-05T12:00:24.621Z,22.1013
2023-05-05T12:01:25.915Z,22.1400
2023-05-05T12:02:26.332Z,22.3539
2023-05-05T12:03:28.138Z,22.4375
2023-05-05T12:04:28.533Z,22.4589
2023-05-05T12:05:28.916Z,22.1264
2023-05-05T12:06:29.233Z,21.9999
2023-05-05T12:07:29.370Z,22.1926
2023-05-05T12:08:29.402Z,22.2786
2023-05-05T12:09:29.503Z,22.4551
2023-05-05T12:10:30.642Z,22.6623
2023-05-05T12:11:31.966Z,23.0456
2023-05-05T12:12:32.337Z,23.2650
2023-05-05T12:13:33.246Z,23.5018
2023-05-05T12:14:34.464Z,23.2517
2023-05-05T12:15:34.676Z,22.9814
2023-05-05T12:16:34.882Z,23.0374
2023-05-05T12:17:35.533Z,22.8508
2023-05-05T12:18:36.222Z,22.7828
2023-05-05T12:19:36.337Z,23.0141
2023-05-05T12:20:37.680Z,23.0828
2023-05-05T12:21:37.860Z,23.3598
2023-05-05T12:22:38.058Z,23.4132
2023-05-05T12:23:38.616Z,23.3139
2023-05-05T12:24:38.630Z,23.2848
2023-05-05T12:25:38.864Z,23.2156
2023-05-05T12:26:38.876Z,23.3253
2023-05-05T12:27:39.285Z,23.6111
2023-05-05T12:28:39.356Z,23.8810
2023-05-05T12:29:39.623Z,23.5796
2023-05-05T12:30:40.655Z,23.5463
2023-05-05T12:31:41.095Z,23.3638
2023-05-05T12:32:41.716Z,23.4467
2023-05-05T12:33:41.942Z,24.0448
2023-05-05T12:34:42.107Z,24.1226
2023-05-05T12:35:42.100Z,24.0089
2023-05-05T12:36:42.685Z,24.7124
2023-05-05T12:37:43.914Z,24.6270
2023-05-05T12:38:44.154Z,24.8237
2023-05-05T12:39:45.634Z,24.5621
2023-05-05T12:40:46.407Z,24.4174
2023-05-05T12:41:46.537Z,23.8566
2023-05-05T12:42:46.627Z,23.9374
2023-05-05T12:43:46.822Z,24.2437
2023-05-05T12:44:46.800Z,24.5773
2023-05-05T12:45:47.135Z,24.7489
2023-05-05T12:46:47.617Z,24.5519
2023-05-05T12:47:48.059Z,24.8390
2023-05-05T12:48:48.601Z,25.1094
2023-05-05T12:49:48.941Z,25.0441
2023-05-05T12:50:50.450Z,24.9328
2023-05-05T12:51:50.516Z,24.8840
2023-05-05T12:52:50.724Z,24.3717
2023-05-05T12:53:51.753Z,24.1974
2023-05-05T12:54:52.953Z,24.7248
2023-05-05T12:55:53.277Z,24.4651
2023-05-05T12:56:53.482Z,25.0484
2023-05-05T12:57:53.666Z,25.2552
2023-05-05T12:58:53.864Z,25.2080
2023-05-05T12:59:55.174Z,25.7589
2023-05-05T13:00:55.739Z,25.7391
2023-05-05T13:01:56.202Z,26.2151